Time;durP1;ratioP1;P1;durP2;ratioP2;P2;SDS_P1;SDS_P2;PMS_P1;PMS_P2;Temp;Humidity;BMP_temperature;BMP_pressure;BME280_temperature;BME280_humidity;BME280_pressure;Samples;Min_cycle;Max_cycle;Signal;HPM_P1;HPM_P2
2021/03/19 00:02:04;;;;;;;19.60;12.18;;;1.50;36.60;;;;;;4948006;29;20047;-74
2021/03/19 00:04:31;;;;;;;21.20;12.57;;;1.50;39.20;;;;;;4945636;28;20056;-73
2021/03/19 00:06:59;;;;;;;22.23;13.13;;;1.60;39.50;;;;;;4937695;29;20070;-74
2021/03/19 00:09:26;;;;;;;20.70;13.32;;;1.70;39.10;;;;;;4939741;29;20051;-74
2021/03/19 00:11:56;;;;;;;22.80;14.35;;;1.80;39.90;;;;;;4947418;29;20130;-74
2021/03/19 00:14:23;;;;;;;21.45;13.40;;;1.70;38.90;;;;;;4948060;29;21688;-74
2021/03/19 00:16:50;;;;;;;20.48;13.60;;;1.70;39.50;;;;;;4943630;29;20137;-73
2021/03/19 00:19:19;;;;;;;23.08;13.98;;;1.60;39.40;;;;;;4940836;29;20055;-76
2021/03/19 00:21:46;;;;;;;22.60;14.77;;;1.80;40.80;;;;;;4945036;29;20071;-77
2021/03/19 00:24:13;;;;;;;24.23;14.77;;;1.70;40.50;;;;;;4944753;29;20070;-74
2021/03/19 00:26:40;;;;;;;24.92;14.38;;;1.80;41.00;;;;;;4936613;29;20059;-76
2021/03/19 00:29:09;;;;;;;24.13;15.43;;;1.80;41.00;;;;;;4942482;29;20048;-75
2021/03/19 00:31:36;;;;;;;24.27;14.75;;;1.80;41.40;;;;;;4945739;28;20489;-77
2021/03/19 00:34:03;;;;;;;24.42;14.70;;;1.80;42.30;;;;;;4944244;29;20063;-75
2021/03/19 00:36:30;;;;;;;24.05;15.23;;;1.80;41.70;;;;;;4945485;29;20055;-79
2021/03/19 00:38:57;;;;;;;26.33;16.55;;;1.80;41.30;;;;;;4946966;29;20086;-75
2021/03/19 00:41:24;;;;;;;24.67;15.93;;;1.70;41.20;;;;;;4939985;29;20609;-75
2021/03/19 00:43:51;;;;;;;22.08;14.50;;;1.80;41.60;;;;;;4942288;29;20429;-75
2021/03/19 00:46:18;;;;;;;31.80;16.67;;;1.70;41.30;;;;;;4946221;29;20051;-74
2021/03/19 00:48:45;;;;;;;28.50;17.17;;;1.70;42.30;;;;;;4940917;29;20058;-74
2021/03/19 00:51:13;;;;;;;24.85;16.08;;;1.70;43.40;;;;;;4936772;29;20498;-74
2021/03/19 00:53:40;;;;;;;29.58;16.17;;;1.80;42.70;;;;;;4941164;29;20071;-73
2021/03/19 00:56:07;;;;;;;25.27;15.38;;;1.80;42.40;;;;;;4942732;29;20059;-72
2021/03/19 00:58:34;;;;;;;25.38;15.23;;;1.80;41.40;;;;;;4945215;29;20402;-75
2021/03/19 01:01:02;;;;;;;24.90;16.08;;;1.70;42.40;;;;;;4944860;29;20059;-74
2021/03/19 01:03:31;;;;;;;25.38;14.93;;;1.80;42.00;;;;;;4926413;29;20490;-73
2021/03/19 01:06:01;;;;;;;25.80;16.42;;;1.80;42.50;;;;;;4928400;29;20122;-75
2021/03/19 01:08:28;;;;;;;23.60;15.05;;;1.80;42.50;;;;;;4935138;29;20106;-75
2021/03/19 01:11:00;;;;;;;28.60;16.58;;;1.80;41.80;;;;;;4945117;28;20476;-75
2021/03/19 01:13:27;;;;;;;31.92;16.15;;;1.80;41.70;;;;;;4942270;29;20091;-75
2021/03/19 01:15:55;;;;;;;24.27;15.23;;;1.80;42.00;;;;;;4944476;29;20043;-74
2021/03/19 01:18:26;;;;;;;26.98;16.30;;;1.70;42.80;;;;;;4939291;29;20598;-74
2021/03/19 01:21:12;;;;;;;30.17;17.38;;;1.70;43.50;;;;;;4935020;29;20055;-75
2021/03/19 01:23:42;;;;;;;28.15;16.77;;;1.60;43.40;;;;;;4940257;28;20106;-78
2021/03/19 01:26:11;;;;;;;28.42;17.20;;;1.50;44.30;;;;;;4928101;29;20419;-73
2021/03/19 01:28:38;;;;;;;27.42;17.20;;;1.50;44.50;;;;;;4933800;29;20065;-75
2021/03/19 01:31:18;;;;;;;29.25;17.58;;;1.60;45.10;;;;;;4941729;29;20052;-74
2021/03/19 01:33:46;;;;;;;36.22;18.13;;;1.50;45.40;;;;;;4941929;29;20074;-74
2021/03/19 01:36:14;;;;;;;31.17;17.75;;;1.50;46.10;;;;;;4941157;29;20133;-73
2021/03/19 01:38:42;;;;;;;28.25;17.08;;;1.50;46.40;;;;;;4933303;29;20066;-73
2021/03/19 01:41:09;;;;;;;28.15;17.40;;;1.50;46.70;;;;;;4940616;29;20048;-73
2021/03/19 01:43:37;;;;;;;30.33;17.63;;;1.40;46.80;;;;;;4944431;28;20055;-73
2021/03/19 01:46:43;;;;;;;30.73;17.30;;;1.40;47.30;;;;;;4936326;29;20569;-74
2021/03/19 01:49:52;;;;;;;34.67;17.90;;;1.40;47.30;;;;;;4937502;29;20051;-74
2021/03/19 01:52:56;;;;;;;31.45;18.83;;;1.30;47.30;;;;;;4937482;29;20068;-74
2021/03/19 01:56:00;;;;;;;30.67;18.33;;;1.30;47.50;;;;;;4942297;28;20057;-73
2021/03/19 01:59:04;;;;;;;35.97;19.02;;;1.30;47.90;;;;;;4939885;29;20508;-74
2021/03/19 02:02:09;;;;;;;34.10;19.65;;;1.30;49.00;;;;;;4940610;29;20081;-73
2021/03/19 02:04:55;;;;;;;;;;;1.30;49.40;;;;;;4942781;29;20055;-75
2021/03/19 02:08:03;;;;;;;38.03;21.80;;;1.30;49.30;;;;;;4938578;29;20009;-76
2021/03/19 02:11:06;;;;;;;38.83;22.42;;;1.30;49.80;;;;;;4910198;29;20048;-75
2021/03/19 02:14:10;;;;;;;41.92;22.25;;;1.30;49.70;;;;;;4913715;29;20089;-73
2021/03/19 02:17:15;;;;;;;42.45;22.92;;;1.30;50.10;;;;;;4939733;29;20506;-74
2021/03/19 02:20:19;;;;;;;39.97;21.80;;;1.20;50.00;;;;;;4937945;29;20057;-74
2021/03/19 02:23:25;;;;;;;37.33;22.50;;;1.20;50.10;;;;;;4941086;29;20051;-73
2021/03/19 02:26:29;;;;;;;41.38;22.38;;;1.10;50.00;;;;;;4940468;29;20049;-73
2021/03/19 02:29:34;;;;;;;43.45;23.08;;;1.20;51.00;;;;;;4941127;29;20442;-73
2021/03/19 02:32:08;;;;;;;47.80;24.48;;;1.10;51.10;;;;;;4940167;29;20517;-73
2021/03/19 02:34:40;;;;;;;44.67;24.67;;;1.20;51.10;;;;;;4942180;29;20058;-78
2021/03/19 02:37:10;;;;;;;45.83;24.25;;;1.20;51.10;;;;;;4944095;29;20134;-72
2021/03/19 02:39:38;;;;;;;46.33;24.70;;;1.20;51.40;;;;;;4938838;29;20138;-75
2021/03/19 02:42:06;;;;;;;50.80;25.45;;;1.30;51.60;;;;;;4942062;29;20070;-76
2021/03/19 02:44:34;;;;;;;47.72;24.58;;;1.20;51.50;;;;;;4937230;29;20052;-73
2021/03/19 02:47:02;;;;;;;45.20;23.13;;;1.20;51.80;;;;;;4941312;29;20457;-72
2021/03/19 02:49:29;;;;;;;39.45;22.38;;;1.20;51.80;;;;;;4937602;29;20055;-73
2021/03/19 02:52:17;;;;;;;42.83;23.23;;;1.20;51.90;;;;;;4945841;29;20978;-73
2021/03/19 02:54:45;;;;;;;39.38;21.63;;;1.10;51.30;;;;;;4946275;29;20134;-72
2021/03/19 02:57:12;;;;;;;41.88;22.35;;;1.10;51.70;;;;;;4938978;29;20056;-73
2021/03/19 02:59:39;;;;;;;41.15;22.95;;;1.10;52.40;;;;;;4931598;29;20052;-73
2021/03/19 03:02:07;;;;;;;41.67;22.33;;;1.10;52.60;;;;;;4944460;29;20059;-72
2021/03/19 03:04:34;;;;;;;46.10;23.23;;;1.20;52.70;;;;;;4938245;29;20050;-73
2021/03/19 03:07:01;;;;;;;46.20;23.98;;;1.20;52.50;;;;;;4950832;28;20137;-73
2021/03/19 03:09:30;;;;;;;45.83;22.98;;;1.20;52.70;;;;;;4943511;29;20051;-75
2021/03/19 03:11:58;;;;;;;44.20;22.08;;;1.20;52.50;;;;;;4947397;28;20054;-73
2021/03/19 03:14:27;;;;;;;48.10;23.30;;;1.20;52.80;;;;;;4956883;28;20081;-76
2021/03/19 03:16:57;;;;;;;41.30;23.17;;;1.30;53.30;;;;;;4944669;29;20099;-73
2021/03/19 03:19:26;;;;;;;41.53;22.60;;;1.40;53.30;;;;;;4943926;28;20055;-73
2021/03/19 03:21:54;;;;;;;42.25;23.77;;;1.50;53.00;;;;;;4944291;29;20051;-74
2021/03/19 03:24:21;;;;;;;41.22;22.08;;;1.40;52.60;;;;;;4948741;29;20706;-74
2021/03/19 03:26:50;;;;;;;44.05;23.65;;;1.50;52.70;;;;;;4942635;28;20533;-73
2021/03/19 03:29:17;;;;;;;43.05;23.70;;;1.50;51.60;;;;;;4946485;29;20059;-75
2021/03/19 03:31:44;;;;;;;39.83;22.75;;;1.40;51.20;;;;;;4950218;29;20509;-74
2021/03/19 03:34:11;;;;;;;40.50;22.63;;;1.40;51.20;;;;;;4944939;29;20062;-74
2021/03/19 03:36:40;;;;;;;43.72;22.90;;;1.40;51.30;;;;;;4946769;28;20051;-72
2021/03/19 03:39:11;;;;;;;43.30;22.77;;;1.50;51.40;;;;;;4943378;29;20053;-77
2021/03/19 03:41:39;;;;;;;41.50;23.00;;;1.50;51.30;;;;;;4940749;29;20141;-75
2021/03/19 03:44:06;;;;;;;42.72;23.67;;;1.40;50.80;;;;;;4948052;29;20506;-74
2021/03/19 03:46:33;;;;;;;44.50;24.50;;;1.50;50.90;;;;;;4948911;28;20059;-72
2021/03/19 03:49:00;;;;;;;42.50;23.08;;;1.50;51.20;;;;;;4939434;29;20051;-73
2021/03/19 03:51:28;;;;;;;38.88;23.52;;;1.50;50.60;;;;;;4946422;28;20047;-74
2021/03/19 03:53:57;;;;;;;43.20;23.05;;;1.50;50.80;;;;;;4945592;29;20122;-73
2021/03/19 03:56:26;;;;;;;46.30;24.02;;;1.50;50.90;;;;;;4946547;29;20065;-73
2021/03/19 03:58:55;;;;;;;43.42;23.60;;;1.60;51.30;;;;;;4944737;28;20510;-73
2021/03/19 04:01:22;;;;;;;43.00;23.63;;;1.50;50.50;;;;;;4945324;29;20492;-74
2021/03/19 04:03:50;;;;;;;39.30;23.38;;;1.50;50.50;;;;;;4947327;28;20048;-74
2021/03/19 04:06:18;;;;;;;43.70;23.83;;;1.50;49.70;;;;;;4946642;28;20095;-73
2021/03/19 04:08:45;;;;;;;43.58;24.08;;;1.60;50.20;;;;;;4941599;29;20070;-72
2021/03/19 04:11:14;;;;;;;41.00;23.85;;;1.60;49.80;;;;;;4943855;29;20056;-73
2021/03/19 04:13:42;;;;;;;42.45;23.58;;;1.50;49.60;;;;;;4947866;29;20051;-74
2021/03/19 04:16:10;;;;;;;43.42;24.10;;;1.60;49.60;;;;;;4943215;28;20139;-74
2021/03/19 04:18:37;;;;;;;38.40;22.77;;;1.70;49.50;;;;;;4946899;29;20055;-74
2021/03/19 04:21:08;;;;;;;41.08;23.77;;;1.70;49.10;;;;;;4942153;29;20125;-75
2021/03/19 04:23:38;;;;;;;44.03;23.65;;;1.70;49.10;;;;;;4941871;29;20055;-73
2021/03/19 04:26:08;;;;;;;42.42;23.90;;;1.70;48.50;;;;;;4950933;29;20138;-75
2021/03/19 04:28:39;;;;;;;43.47;22.33;;;1.70;47.90;;;;;;4943312;29;20048;-75
2021/03/19 04:31:06;;;;;;;40.75;23.65;;;1.70;48.40;;;;;;4945563;29;20051;-74
2021/03/19 04:33:34;;;;;;;47.72;24.45;;;1.70;48.50;;;;;;4945335;29;20055;-73
2021/03/19 04:36:18;;;;;;;40.25;23.40;;;1.60;47.60;;;;;;4941540;29;20134;-73
2021/03/19 04:38:45;;;;;;;47.63;23.90;;;1.70;48.30;;;;;;4939530;29;20044;-73
2021/03/19 04:41:13;;;;;;;43.70;22.80;;;1.70;48.30;;;;;;4941610;29;20428;-74
2021/03/19 04:43:41;;;;;;;43.63;23.13;;;1.70;47.60;;;;;;4943013;29;20476;-74
2021/03/19 04:46:08;;;;;;;40.65;23.20;;;1.70;47.60;;;;;;4944580;29;20122;-74
2021/03/19 04:48:36;;;;;;;42.50;23.67;;;1.80;47.70;;;;;;4941686;29;20055;-79
2021/03/19 04:51:03;;;;;;;42.20;22.92;;;1.80;47.60;;;;;;4944146;29;20047;-75
2021/03/19 04:53:47;;;;;;;39.22;21.83;;;1.70;46.90;;;;;;4945372;29;20059;-75
2021/03/19 04:56:13;;;;;;;41.58;22.60;;;1.80;46.70;;;;;;4950103;29;20130;-77
2021/03/19 04:58:41;;;;;;;39.92;21.67;;;1.80;46.30;;;;;;4937396;29;20055;-76
2021/03/19 05:01:08;;;;;;;40.88;21.88;;;1.80;46.30;;;;;;4938198;29;20103;-73
2021/03/19 05:03:35;;;;;;;42.22;22.25;;;1.70;46.10;;;;;;4945382;28;20059;-74
2021/03/19 05:06:02;;;;;;;43.00;22.92;;;1.80;46.50;;;;;;4942342;29;20090;-73
2021/03/19 05:08:29;;;;;;;42.85;24.77;;;1.80;46.40;;;;;;4941969;29;20123;-73
2021/03/19 05:10:56;;;;;;;45.00;23.17;;;1.70;47.00;;;;;;4932000;29;20528;-73
2021/03/19 05:13:23;;;;;;;40.58;23.40;;;1.60;47.50;;;;;;4937568;29;20069;-73
2021/03/19 05:15:51;;;;;;;37.95;21.88;;;1.60;47.50;;;;;;4937615;29;20510;-74
2021/03/19 05:18:18;;;;;;;36.33;21.98;;;1.50;47.40;;;;;;4939402;29;20066;-71
2021/03/19 05:20:45;;;;;;;31.98;19.05;;;1.60;47.70;;;;;;4943822;29;20442;-72
2021/03/19 05:23:20;;;;;;;35.03;20.65;;;1.50;47.80;;;;;;4946996;29;20090;-73
2021/03/19 05:25:47;;;;;;;38.63;22.63;;;1.50;48.70;;;;;;4943617;29;20544;-72
2021/03/19 05:28:14;;;;;;;36.88;22.13;;;1.60;48.40;;;;;;4940373;29;20403;-73
2021/03/19 05:30:41;;;;;;;36.42;21.48;;;1.60;49.00;;;;;;4939223;29;20143;-72
2021/03/19 05:33:09;;;;;;;40.75;23.70;;;1.60;49.20;;;;;;4942969;29;20134;-72
2021/03/19 05:35:36;;;;;;;40.55;23.42;;;1.60;49.60;;;;;;4934836;29;20544;-74
2021/03/19 05:38:04;;;;;;;43.67;24.58;;;1.50;49.60;;;;;;4938192;29;20143;-71
2021/03/19 05:40:37;;;;;;;42.22;24.55;;;1.50;50.20;;;;;;4942155;29;20063;-76
2021/03/19 05:43:27;;;;;;;43.42;25.15;;;1.50;50.30;;;;;;4946189;29;20391;-72
2021/03/19 05:45:56;;;;;;;46.53;25.58;;;1.50;51.30;;;;;;4943508;29;20051;-74
2021/03/19 05:48:25;;;;;;;46.08;26.70;;;1.50;51.40;;;;;;4940865;29;20047;-72
2021/03/19 05:50:53;;;;;;;45.65;26.60;;;1.50;51.30;;;;;;4936701;29;20059;-73
2021/03/19 05:53:38;;;;;;;48.92;27.13;;;1.50;51.70;;;;;;4943063;29;20055;-73
2021/03/19 05:56:14;;;;;;;53.78;29.48;;;1.50;51.40;;;;;;4940610;29;20084;-72
2021/03/19 05:58:41;;;;;;;54.92;29.65;;;1.50;51.40;;;;;;4936581;29;20057;-79
2021/03/19 06:01:08;;;;;;;50.40;28.50;;;1.50;52.20;;;;;;4940310;29;20417;-74
2021/03/19 06:03:36;;;;;;;59.33;30.60;;;1.50;52.50;;;;;;4941785;29;20069;-73
2021/03/19 06:06:05;;;;;;;57.33;31.27;;;1.50;52.20;;;;;;4937433;29;20694;-77
2021/03/19 06:08:35;;;;;;;59.92;30.60;;;1.50;52.20;;;;;;4937057;29;20054;-72
2021/03/19 06:11:14;;;;;;;60.33;30.80;;;1.50;52.20;;;;;;4940137;29;20082;-73
2021/03/19 06:14:03;;;;;;;59.70;32.20;;;1.50;52.30;;;;;;4940793;29;20051;-73
2021/03/19 06:16:42;;;;;;;57.85;31.35;;;1.50;53.10;;;;;;4935569;29;20053;-71
2021/03/19 06:19:30;;;;;;;59.45;31.23;;;1.50;52.20;;;;;;4938033;29;20074;-73
2021/03/19 06:22:22;;;;;;;57.45;29.88;;;1.60;52.90;;;;;;4938270;29;20068;-73
2021/03/19 06:25:17;;;;;;;53.83;28.15;;;1.60;52.90;;;;;;4941522;29;20047;-74
2021/03/19 06:27:49;;;;;;;51.60;27.85;;;1.50;52.20;;;;;;4942451;29;20055;-74
2021/03/19 06:30:24;;;;;;;53.65;28.83;;;1.50;52.80;;;;;;4935755;29;20543;-73
2021/03/19 06:33:20;;;;;;;50.03;28.27;;;1.60;53.40;;;;;;4940224;29;20052;-74
2021/03/19 06:36:09;;;;;;;51.55;26.70;;;1.60;52.70;;;;;;4945006;29;20063;-73
2021/03/19 06:38:43;;;;;;;;;;;1.60;52.40;;;;;;4930608;28;20085;-73
2021/03/19 06:41:26;;;;;;;49.88;26.95;;;1.60;52.00;;;;;;4944653;29;19923;-72
2021/03/19 06:44:12;;;;;;;43.92;26.05;;;1.70;51.60;;;;;;4940288;29;20063;-73
2021/03/19 06:46:44;;;;;;;51.45;26.10;;;1.70;51.90;;;;;;4940147;29;20055;-71
2021/03/19 06:49:11;;;;;;;39.72;22.38;;;1.80;51.60;;;;;;4936424;29;20128;-72
2021/03/19 06:51:41;;;;;;;42.67;22.83;;;1.80;49.80;;;;;;4939907;29;20059;-74
2021/03/19 06:54:11;;;;;;;39.42;21.73;;;1.80;49.80;;;;;;4938903;29;20043;-74
2021/03/19 06:56:39;;;;;;;37.20;21.38;;;1.80;48.80;;;;;;4938857;28;20575;-73
2021/03/19 06:59:22;;;;;;;37.65;22.23;;;1.70;47.00;;;;;;4935646;29;20490;-72
2021/03/19 07:01:50;;;;;;;43.08;22.17;;;1.80;48.70;;;;;;4938466;29;20055;-74
2021/03/19 07:04:47;;;;;;;42.25;23.35;;;1.90;47.90;;;;;;4940788;29;20055;-71
2021/03/19 07:07:50;;;;;;;39.88;23.15;;;1.80;47.70;;;;;;4939140;29;20047;-73
2021/03/19 07:10:29;;;;;;;43.33;23.25;;;1.80;47.70;;;;;;4865064;29;20140;-73
2021/03/19 07:13:03;;;;;;;43.90;23.70;;;1.60;46.70;;;;;;4931481;29;20055;-73
2021/03/19 07:15:38;;;;;;;37.90;21.35;;;1.70;48.70;;;;;;4939185;29;20453;-73
2021/03/19 07:18:12;;;;;;;44.10;23.65;;;1.70;48.20;;;;;;4938952;29;20054;-72
2021/03/19 07:21:01;;;;;;;41.45;23.02;;;1.90;50.10;;;;;;4938182;29;20163;-73
2021/03/19 07:23:39;;;;;;;39.55;22.30;;;1.90;47.80;;;;;;4942189;29;20051;-73
2021/03/19 07:26:14;;;;;;;39.35;22.50;;;1.80;48.50;;;;;;4935749;29;20502;-75
2021/03/19 07:29:01;;;;;;;36.38;19.33;;;1.80;49.40;;;;;;4933766;29;20512;-72
2021/03/19 07:32:00;;;;;;;35.67;20.35;;;1.60;47.50;;;;;;4938898;29;20067;-74
2021/03/19 07:34:50;;;;;;;34.90;20.00;;;1.70;50.60;;;;;;4927610;29;20545;-74
2021/03/19 07:37:38;;;;;;;38.92;19.63;;;1.70;50.20;;;;;;4933062;29;20055;-73
2021/03/19 07:40:34;;;;;;;37.95;20.48;;;1.70;49.90;;;;;;4932338;28;20054;-75
2021/03/19 07:43:20;;;;;;;37.83;21.08;;;1.80;49.80;;;;;;4935941;29;20146;-73
2021/03/19 07:45:58;;;;;;;38.40;20.30;;;1.90;49.60;;;;;;4939089;29;20101;-72
2021/03/19 07:48:35;;;;;;;36.22;19.83;;;1.90;49.60;;;;;;4943152;29;20051;-73
2021/03/19 07:51:25;;;;;;;36.28;20.35;;;1.90;49.10;;;;;;4939839;28;20304;-73
2021/03/19 07:53:59;;;;;;;35.00;19.50;;;1.90;49.60;;;;;;4941689;29;20051;-72
2021/03/19 07:56:37;;;;;;;38.28;20.58;;;1.90;50.70;;;;;;4943785;29;20489;-72
2021/03/19 07:59:19;;;;;;;37.75;19.77;;;1.80;50.30;;;;;;4939432;29;20039;-72
2021/03/19 08:01:56;;;;;;;37.78;21.42;;;1.80;50.70;;;;;;4941022;29;20047;-73
2021/03/19 08:04:34;;;;;;;40.25;21.30;;;1.80;50.60;;;;;;4940665;29;20084;-75
2021/03/19 08:07:18;;;;;;;44.38;22.15;;;1.70;50.40;;;;;;4946037;29;20048;-76
2021/03/19 08:09:55;;;;;;;41.88;21.38;;;1.80;51.60;;;;;;4939014;29;20071;-73
2021/03/19 08:12:28;;;;;;;38.67;20.73;;;1.90;51.70;;;;;;4940923;29;20579;-75
2021/03/19 08:15:04;;;;;;;38.67;20.40;;;2.10;51.80;;;;;;4943124;29;20429;-75
2021/03/19 08:17:43;;;;;;;37.90;19.73;;;2.20;52.10;;;;;;4942914;29;20048;-75
2021/03/19 08:20:36;;;;;;;36.92;18.92;;;2.10;50.30;;;;;;4938341;29;20055;-75
2021/03/19 08:23:13;;;;;;;33.15;18.58;;;2.10;50.50;;;;;;4934267;29;20055;-76
2021/03/19 08:25:45;;;;;;;33.97;17.45;;;2.10;48.40;;;;;;4945701;29;20501;-75
2021/03/19 08:28:20;;;;;;;32.25;16.92;;;2.30;49.40;;;;;;4941811;29;20137;-74
2021/03/19 08:30:53;;;;;;;30.88;17.08;;;2.30;48.00;;;;;;4937757;29;20573;-73
2021/03/19 08:33:29;;;;;;;32.53;16.48;;;2.50;47.20;;;;;;4945521;29;20054;-73
2021/03/19 08:36:02;;;;;;;27.88;15.45;;;2.70;46.50;;;;;;4940506;29;20421;-72
2021/03/19 08:38:34;;;;;;;24.73;14.32;;;2.90;43.90;;;;;;4942561;29;20488;-73
2021/03/19 08:41:04;;;;;;;25.08;13.50;;;3.00;40.60;;;;;;4943480;29;20056;-73
2021/03/19 08:43:38;;;;;;;25.63;14.32;;;3.00;38.00;;;;;;4936253;29;20051;-73
2021/03/19 08:46:12;;;;;;;23.48;14.27;;;3.10;37.10;;;;;;4945904;29;20066;-72
2021/03/19 08:48:53;;;;;;;25.63;13.95;;;3.30;37.50;;;;;;4948739;29;20106;-77
2021/03/19 08:51:37;;;;;;;25.65;14.65;;;3.30;34.70;;;;;;4936279;29;20078;-73
2021/03/19 08:54:15;;;;;;;25.83;14.30;;;3.20;34.50;;;;;;4937242;29;20054;-74
2021/03/19 08:56:56;;;;;;;29.75;13.90;;;3.00;32.20;;;;;;4938839;29;20063;-73
2021/03/19 08:59:52;;;;;;;24.80;14.68;;;3.00;32.80;;;;;;4942580;29;20059;-74
2021/03/19 09:02:48;;;;;;;25.65;14.18;;;2.90;31.60;;;;;;4939392;28;20131;-74
2021/03/19 09:05:21;;;;;;;25.17;14.25;;;2.90;31.80;;;;;;4927226;29;20107;-75
2021/03/19 09:08:30;;;;;;;24.85;13.48;;;2.90;32.90;;;;;;4940346;29;20047;-72
2021/03/19 09:11:11;;;;;;;23.73;14.00;;;2.80;28.60;;;;;;4939280;29;20406;-75
2021/03/19 09:13:54;;;;;;;24.83;13.05;;;2.80;29.80;;;;;;4941586;29;20048;-75
2021/03/19 09:16:49;;;;;;;24.20;13.73;;;2.80;32.30;;;;;;4936490;28;20052;-75
2021/03/19 09:19:40;;;;;;;19.83;11.82;;;3.00;28.80;;;;;;4938675;29;20043;-75
2021/03/19 09:22:35;;;;;;;18.00;10.27;;;3.10;21.90;;;;;;4923985;29;20569;-76
2021/03/19 09:25:34;;;;;;;17.40;10.38;;;3.20;23.40;;;;;;4934743;29;20522;-75
2021/03/19 09:28:26;;;;;;;17.00;10.18;;;3.30;20.30;;;;;;4936322;29;20134;-75
2021/03/19 09:30:57;;;;;;;18.70;10.45;;;3.40;19.50;;;;;;4934012;29;20047;-75
2021/03/19 09:33:58;;;;;;;16.13;10.23;;;3.60;19.70;;;;;;4940358;29;20076;-75
2021/03/19 09:37:01;;;;;;;18.17;10.75;;;3.40;19.80;;;;;;4934625;29;20047;-77
2021/03/19 09:39:54;;;;;;;17.50;10.30;;;3.70;17.20;;;;;;4934456;29;20143;-76
2021/03/19 09:42:48;;;;;;;16.65;9.52;;;3.80;15.60;;;;;;4937579;29;20063;-76
2021/03/19 09:45:31;;;;;;;17.00;10.43;;;3.90;15.40;;;;;;4937993;29;20051;-74
2021/03/19 09:48:26;;;;;;;17.52;10.73;;;3.80;15.40;;;;;;4946057;29;20621;-76
2021/03/19 09:51:19;;;;;;;15.65;9.65;;;4.00;15.50;;;;;;4942440;29;20077;-75
2021/03/19 09:53:45;;;;;;;14.43;9.48;;;4.00;15.50;;;;;;4940478;29;20051;-76
2021/03/19 09:56:29;;;;;;;15.60;9.98;;;4.00;15.50;;;;;;4942031;29;20055;-74
2021/03/19 09:58:58;;;;;;;14.77;9.48;;;3.90;16.40;;;;;;4936893;29;20062;-77
2021/03/19 10:01:41;;;;;;;15.70;9.85;;;4.10;15.50;;;;;;4938674;29;20048;-74
2021/03/19 10:04:11;;;;;;;13.82;9.65;;;3.80;16.90;;;;;;4939856;29;20054;-77
2021/03/19 10:06:44;;;;;;;16.98;9.95;;;3.90;19.50;;;;;;4938993;29;20168;-76
2021/03/19 10:09:15;;;;;;;13.98;9.02;;;4.00;19.70;;;;;;4938109;29;20043;-74
2021/03/19 10:11:54;;;;;;;14.55;9.13;;;4.00;18.10;;;;;;4946475;29;20131;-75
2021/03/19 10:14:26;;;;;;;12.70;8.38;;;3.80;19.80;;;;;;4937020;28;20054;-76
2021/03/19 10:17:09;;;;;;;12.48;8.73;;;3.50;22.10;;;;;;4935434;29;20059;-76
2021/03/19 10:19:38;;;;;;;11.30;6.90;;;3.50;22.10;;;;;;4938876;29;20114;-73
2021/03/19 10:22:08;;;;;;;11.82;7.68;;;3.30;22.40;;;;;;4937806;29;20455;-73
2021/03/19 10:24:36;;;;;;;10.02;6.60;;;3.20;20.90;;;;;;4944641;29;20149;-76
2021/03/19 10:27:08;;;;;;;9.13;5.88;;;3.30;21.20;;;;;;4940246;28;20056;-75
2021/03/19 10:29:39;;;;;;;9.43;5.97;;;3.30;18.30;;;;;;4940179;29;20498;-75
2021/03/19 10:32:10;;;;;;;6.88;5.10;;;3.40;16.40;;;;;;4939505;29;20054;-74
2021/03/19 10:34:46;;;;;;;8.23;5.35;;;3.30;15.40;;;;;;4937709;29;20062;-77
2021/03/19 10:37:27;;;;;;;8.93;6.00;;;3.40;15.30;;;;;;4940803;29;20501;-74
2021/03/19 10:39:59;;;;;;;8.27;4.97;;;3.50;17.20;;;;;;4936830;29;20047;-74
2021/03/19 10:42:33;;;;;;;8.88;5.57;;;3.70;16.80;;;;;;4937760;29;20640;-73
2021/03/19 10:45:16;;;;;;;7.18;5.00;;;4.00;14.40;;;;;;4936619;29;20114;-73
2021/03/19 10:47:48;;;;;;;7.03;4.38;;;3.90;8.80;;;;;;4937731;29;20063;-73
2021/03/19 10:50:20;;;;;;;6.65;4.78;;;4.00;9.30;;;;;;4939129;29;20048;-73
2021/03/19 10:52:57;;;;;;;7.75;5.05;;;4.60;9.20;;;;;;4940371;29;20092;-74
2021/03/19 10:55:27;;;;;;;7.32;5.20;;;4.80;5.20;;;;;;4935369;29;20055;-73
2021/03/19 10:58:30;;;;;;;5.80;4.45;;;4.70;7.00;;;;;;4939541;29;20052;-75
2021/03/19 11:00:58;;;;;;;7.35;5.05;;;4.60;6.10;;;;;;4933847;29;20052;-74
2021/03/19 11:03:38;;;;;;;7.03;4.97;;;4.30;4.90;;;;;;4935110;29;20051;-73
2021/03/19 11:06:09;;;;;;;7.38;5.05;;;4.40;6.30;;;;;;4941103;29;20453;-73
2021/03/19 11:08:37;;;;;;;8.80;5.50;;;4.10;6.80;;;;;;4935963;29;20044;-72
2021/03/19 11:11:05;;;;;;;7.15;4.82;;;4.10;8.40;;;;;;4937673;29;20264;-73
2021/03/19 11:13:35;;;;;;;7.63;5.10;;;4.00;8.40;;;;;;4939205;28;20054;-74
2021/03/19 11:16:05;;;;;;;9.98;5.00;;;4.20;8.50;;;;;;4937673;29;20107;-71
2021/03/19 11:18:36;;;;;;;8.32;5.57;;;4.10;8.40;;;;;;4935891;29;20088;-77
2021/03/19 11:21:29;;;;;;;10.20;5.82;;;4.30;8.60;;;;;;4940709;29;20063;-76
2021/03/19 11:24:07;;;;;;;9.90;6.03;;;4.30;9.60;;;;;;4935528;29;20065;-76
2021/03/19 11:26:36;;;;;;;9.50;6.13;;;3.70;9.20;;;;;;4945106;28;20071;-76
2021/03/19 11:29:19;;;;;;;9.63;5.80;;;3.80;11.80;;;;;;4938484;29;20051;-76
2021/03/19 11:32:28;;;;;;;11.38;7.38;;;3.90;13.70;;;;;;4939558;29;20079;-77
2021/03/19 11:34:57;;;;;;;11.40;7.15;;;3.70;12.10;;;;;;4934772;28;20066;-76
2021/03/19 11:37:40;;;;;;;11.98;7.07;;;3.50;11.60;;;;;;4942306;29;20114;-77
2021/03/19 11:40:16;;;;;;;13.35;7.57;;;3.60;11.70;;;;;;4941909;29;20047;-77
2021/03/19 11:42:46;;;;;;;11.68;7.65;;;3.50;12.40;;;;;;4934940;29;20127;-72
2021/03/19 11:45:16;;;;;;;12.95;8.15;;;3.50;13.70;;;;;;4941021;29;20143;-73
2021/03/19 11:47:54;;;;;;;11.95;6.78;;;3.60;11.10;;;;;;4944489;29;20074;-73
2021/03/19 11:50:36;;;;;;;15.40;8.30;;;3.60;11.40;;;;;;4938366;29;20675;-72
2021/03/19 11:53:05;;;;;;;14.77;8.93;;;3.60;12.30;;;;;;4938337;29;20498;-70
2021/03/19 11:55:36;;;;;;;15.90;8.88;;;3.40;12.40;;;;;;4943619;29;20144;-72
2021/03/19 11:58:04;;;;;;;18.90;10.02;;;3.50;14.90;;;;;;4933541;29;20047;-73
2021/03/19 12:00:35;;;;;;;17.83;9.93;;;3.50;14.90;;;;;;4941112;29;20557;-72
2021/03/19 12:03:05;;;;;;;19.55;10.38;;;3.40;11.00;;;;;;4942173;29;20522;-72
2021/03/19 12:05:34;;;;;;;18.58;9.68;;;3.30;13.30;;;;;;4940766;29;20078;-73
2021/03/19 12:08:02;;;;;;;20.33;10.15;;;3.20;12.10;;;;;;4937675;28;20087;-73
2021/03/19 12:10:29;;;;;;;17.98;10.10;;;3.30;12.90;;;;;;4933779;29;20046;-72
2021/03/19 12:13:00;;;;;;;17.60;9.57;;;3.50;10.20;;;;;;4936852;29;20083;-79
2021/03/19 12:15:30;;;;;;;17.25;9.90;;;3.60;9.60;;;;;;4941053;29;20090;-75
2021/03/19 12:17:58;;;;;;;17.15;9.50;;;3.50;9.10;;;;;;4937382;29;20150;-81
2021/03/19 12:20:26;;;;;;;16.23;9.98;;;3.40;8.20;;;;;;4941378;29;20843;-76
2021/03/19 12:22:53;;;;;;;18.88;9.90;;;3.70;8.20;;;;;;4935460;29;20058;-75
2021/03/19 12:25:28;;;;;;;17.08;9.13;;;3.70;4.50;;;;;;4944896;29;20176;-76
2021/03/19 12:27:54;;;;;;;14.60;8.63;;;3.60;5.00;;;;;;4934056;29;20061;-76
2021/03/19 12:30:24;;;;;;;17.90;9.95;;;3.60;3.70;;;;;;4936170;29;20614;-74
2021/03/19 12:32:53;;;;;;;18.17;10.18;;;3.60;5.30;;;;;;4943946;29;20052;-75
2021/03/19 12:35:22;;;;;;;17.67;10.18;;;3.70;6.20;;;;;;4938425;29;20058;-74
2021/03/19 12:37:50;;;;;;;18.73;10.80;;;3.70;5.40;;;;;;4946466;28;20663;-75
2021/03/19 12:40:19;;;;;;;18.70;10.10;;;3.80;5.90;;;;;;4939593;29;20047;-75
2021/03/19 12:42:47;;;;;;;17.05;9.27;;;3.80;6.80;;;;;;4943192;29;20082;-74
2021/03/19 12:45:19;;;;;;;17.98;10.02;;;3.80;3.90;;;;;;4933848;29;20138;-72
2021/03/19 12:47:47;;;;;;;17.55;10.10;;;4.00;3.70;;;;;;4937584;29;20077;-72
2021/03/19 12:50:15;;;;;;;20.42;10.60;;;4.20;3.70;;;;;;4935009;29;20054;-73
2021/03/19 12:52:44;;;;;;;16.67;9.25;;;4.30;3.20;;;;;;4934406;29;20062;-74
2021/03/19 12:55:12;;;;;;;17.10;9.45;;;4.10;1.00;;;;;;4937140;29;20062;-73
2021/03/19 12:57:40;;;;;;;16.60;9.57;;;4.10;1.00;;;;;;4934247;29;20078;-73
2021/03/19 13:00:12;;;;;;;14.35;9.13;;;4.10;1.00;;;;;;4936185;29;20055;-73
2021/03/19 13:02:40;;;;;;;16.65;9.48;;;4.10;1.00;;;;;;4935420;29;20058;-73
2021/03/19 13:05:11;;;;;;;16.98;9.05;;;4.40;1.00;;;;;;4939525;29;20051;-72
2021/03/19 13:07:39;;;;;;;15.57;9.43;;;4.50;1.00;;;;;;4938629;29;20060;-73
2021/03/19 13:10:07;;;;;;;15.13;9.05;;;4.60;1.00;;;;;;4934390;29;20135;-72
2021/03/19 13:12:35;;;;;;;15.35;9.13;;;4.60;1.00;;;;;;4932959;29;20051;-72
2021/03/19 13:15:04;;;;;;;17.15;9.95;;;4.20;1.00;;;;;;4934113;29;20055;-73
2021/03/19 13:17:31;;;;;;;15.88;10.35;;;4.40;1.00;;;;;;4937364;29;20055;-73
2021/03/19 13:19:59;;;;;;;15.27;9.32;;;4.50;1.00;;;;;;4934943;29;20102;-72
2021/03/19 13:22:27;;;;;;;18.23;8.52;;;4.50;1.00;;;;;;4934769;29;20540;-73
2021/03/19 13:24:54;;;;;;;16.80;10.07;;;4.60;1.00;;;;;;4940804;29;20063;-72